Time;durP1;ratioP1;P1;durP2;ratioP2;P2;SDS_P1;SDS_P2;PMS_P1;PMS_P2;Temp;Humidity;BMP_temperature;BMP_pressure;BME280_temperature;BME280_humidity;BME280_pressure;Samples;Min_cycle;Max_cycle;Signal;HPM_P1;HPM_P2
2021/05/25 00:01:38;;;;;;;1.33;0.97;;;9.30;99.90;;;;;;5054031;28;20227;-68
2021/05/25 00:04:04;;;;;;;1.83;0.80;;;9.30;99.90;;;;;;5067250;28;20553;-67
2021/05/25 00:06:29;;;;;;;2.63;1.43;;;9.30;99.90;;;;;;5066877;28;20189;-67
2021/05/25 00:08:55;;;;;;;1.33;0.97;;;9.20;99.90;;;;;;5054314;28;20186;-68
2021/05/25 00:11:20;;;;;;;1.27;1.17;;;9.20;99.90;;;;;;5065752;28;20226;-68
2021/05/25 00:13:46;;;;;;;1.57;1.37;;;9.20;99.90;;;;;;5067407;28;20189;-68
2021/05/25 00:16:11;;;;;;;1.33;1.10;;;9.20;99.90;;;;;;5056022;28;20177;-67
2021/05/25 00:18:38;;;;;;;2.30;1.63;;;9.10;99.90;;;;;;5067434;28;20200;-67
2021/05/25 00:21:04;;;;;;;2.23;1.20;;;9.10;99.90;;;;;;5057909;28;20173;-68
2021/05/25 00:23:29;;;;;;;1.37;0.80;;;9.10;99.90;;;;;;5062965;28;20441;-67
2021/05/25 00:25:55;;;;;;;1.10;1.00;;;9.00;99.90;;;;;;5053839;28;20468;-69
2021/05/25 00:28:20;;;;;;;0.90;0.90;;;9.00;99.90;;;;;;5057872;28;20196;-68
2021/05/25 00:30:47;;;;;;;1.17;1.07;;;9.00;99.90;;;;;;5066497;28;20173;-68
2021/05/25 00:33:13;;;;;;;2.20;1.10;;;9.00;99.90;;;;;;5066284;28;20197;-68
2021/05/25 00:35:40;;;;;;;2.63;0.93;;;9.00;99.90;;;;;;5073835;28;20462;-66
2021/05/25 00:38:06;;;;;;;1.83;1.73;;;9.00;99.90;;;;;;5055307;28;20205;-67
2021/05/25 00:40:32;;;;;;;0.97;0.97;;;9.00;99.90;;;;;;5058961;28;20963;-67
2021/05/25 00:42:57;;;;;;;1.37;1.00;;;8.90;99.90;;;;;;5071812;28;20466;-68
2021/05/25 00:45:23;;;;;;;1.67;1.10;;;8.90;99.90;;;;;;5069450;28;20561;-68
2021/05/25 00:47:49;;;;;;;1.33;1.07;;;8.80;99.90;;;;;;5061934;28;20672;-68
2021/05/25 00:50:19;;;;;;;3.17;1.10;;;8.80;99.90;;;;;;5054869;28;20169;-66
2021/05/25 00:52:45;;;;;;;3.13;1.40;;;8.70;99.90;;;;;;5053830;28;20535;-67
2021/05/25 00:55:17;;;;;;;8.03;1.00;;;8.70;99.90;;;;;;5063631;28;20506;-67
2021/05/25 00:57:44;;;;;;;1.43;1.30;;;8.70;99.90;;;;;;5057811;28;20208;-67
2021/05/25 01:00:11;;;;;;;1.63;1.30;;;8.70;99.90;;;;;;5066900;28;20530;-67
2021/05/25 01:02:37;;;;;;;2.73;2.33;;;8.70;99.90;;;;;;5066048;28;20959;-68
2021/05/25 01:05:04;;;;;;;2.50;1.80;;;8.70;99.90;;;;;;5054407;28;20825;-67
2021/05/25 01:07:30;;;;;;;1.70;1.10;;;8.70;99.90;;;;;;5061648;28;20177;-67
2021/05/25 01:09:58;;;;;;;3.00;1.47;;;8.60;99.90;;;;;;5068854;28;20816;-67
2021/05/25 01:12:26;;;;;;;3.50;1.07;;;8.60;99.90;;;;;;5072232;28;20650;-68
2021/05/25 01:14:56;;;;;;;3.77;1.50;;;8.60;99.90;;;;;;5072211;28;20431;-67
2021/05/25 01:17:22;;;;;;;1.33;1.07;;;8.60;99.90;;;;;;5056664;28;20806;-68
2021/05/25 01:19:47;;;;;;;2.30;1.10;;;8.60;99.90;;;;;;5057035;28;20458;-67
2021/05/25 01:22:13;;;;;;;1.90;1.30;;;8.60;99.90;;;;;;5058303;28;20282;-67
2021/05/25 01:24:38;;;;;;;2.03;1.10;;;8.60;99.90;;;;;;5064570;28;20197;-67
2021/05/25 01:27:06;;;;;;;5.60;1.43;;;8.60;99.90;;;;;;5069488;28;20199;-68
2021/05/25 01:29:32;;;;;;;1.80;1.43;;;8.60;99.90;;;;;;5066224;28;20204;-67
2021/05/25 01:31:58;;;;;;;4.63;1.67;;;8.60;99.90;;;;;;5053096;28;20422;-68
2021/05/25 01:34:24;;;;;;;3.83;1.33;;;8.50;99.90;;;;;;5054338;28;20945;-67
2021/05/25 01:36:49;;;;;;;2.17;1.10;;;8.50;99.90;;;;;;5070494;28;20185;-68
2021/05/25 01:39:16;;;;;;;3.10;1.10;;;8.50;99.90;;;;;;5062820;28;20193;-67
2021/05/25 01:41:42;;;;;;;1.23;1.10;;;8.50;99.90;;;;;;5052914;28;20736;-66
2021/05/25 01:44:08;;;;;;;2.57;2.37;;;8.50;99.90;;;;;;5063803;28;21020;-67
2021/05/25 01:46:34;;;;;;;4.00;1.20;;;8.50;99.90;;;;;;5068759;28;20531;-67
2021/05/25 01:48:59;;;;;;;1.20;1.10;;;8.50;99.90;;;;;;5063738;28;20454;-67
2021/05/25 01:51:25;;;;;;;1.50;1.10;;;8.40;99.90;;;;;;5053186;28;20177;-67
2021/05/25 01:53:51;;;;;;;1.20;1.10;;;8.40;99.90;;;;;;5052773;28;20264;-67
2021/05/25 01:56:16;;;;;;;4.07;1.40;;;8.50;99.90;;;;;;5056026;28;20541;-68
2021/05/25 01:58:43;;;;;;;4.10;1.17;;;8.40;99.90;;;;;;5054670;28;20254;-68
2021/05/25 02:01:10;;;;;;;1.77;1.10;;;8.40;99.90;;;;;;5065304;28;20220;-68
2021/05/25 02:03:37;;;;;;;1.13;1.03;;;8.40;99.90;;;;;;5060053;28;20442;-68
2021/05/25 02:06:04;;;;;;;2.20;1.20;;;8.40;99.90;;;;;;5059795;28;21055;-68
2021/05/25 02:08:30;;;;;;;2.30;1.20;;;8.30;99.90;;;;;;5066345;28;20462;-68
2021/05/25 02:10:59;;;;;;;5.40;1.40;;;8.30;99.90;;;;;;5054489;28;20443;-68
2021/05/25 02:13:27;;;;;;;1.97;1.10;;;8.30;99.90;;;;;;5061586;28;20431;-68
2021/05/25 02:15:55;;;;;;;3.40;1.27;;;8.30;99.90;;;;;;5065120;28;20427;-68
2021/05/25 02:18:23;;;;;;;2.17;1.40;;;8.40;99.90;;;;;;5070862;28;20451;-68
2021/05/25 02:20:51;;;;;;;2.67;1.13;;;8.40;99.90;;;;;;5056716;28;20434;-68
2021/05/25 02:23:17;;;;;;;1.93;0.93;;;8.40;99.90;;;;;;5066604;28;20440;-68
2021/05/25 02:25:43;;;;;;;2.80;2.60;;;8.40;99.90;;;;;;5055468;28;21015;-68
2021/05/25 02:28:10;;;;;;;2.20;1.20;;;8.40;99.90;;;;;;5061680;28;20455;-68
2021/05/25 02:30:36;;;;;;;3.07;1.20;;;8.30;99.90;;;;;;5068423;28;20933;-68
2021/05/25 02:33:06;;;;;;;3.20;1.00;;;8.30;99.90;;;;;;5051864;28;20428;-68
2021/05/25 02:35:32;;;;;;;2.97;1.00;;;8.30;99.90;;;;;;5054629;28;20435;-68
2021/05/25 02:37:57;;;;;;;2.50;1.30;;;8.20;99.90;;;;;;5061525;28;20553;-68
2021/05/25 02:40:25;;;;;;;3.43;1.10;;;8.20;99.90;;;;;;5070504;28;20522;-68
2021/05/25 02:42:51;;;;;;;4.30;2.40;;;8.20;99.90;;;;;;5065912;28;20648;-68
2021/05/25 02:45:17;;;;;;;2.37;1.30;;;8.20;99.90;;;;;;5064090;28;20558;-68
2021/05/25 02:47:42;;;;;;;1.90;1.30;;;8.20;99.90;;;;;;5060546;28;20511;-68
2021/05/25 02:50:09;;;;;;;1.67;1.07;;;8.10;99.90;;;;;;5051314;28;20639;-68
2021/05/25 02:52:37;;;;;;;1.23;0.90;;;8.10;99.90;;;;;;5063991;28;20530;-68
2021/05/25 02:55:11;;;;;;;1.73;1.10;;;8.10;99.90;;;;;;5059466;28;20459;-68
2021/05/25 02:57:37;;;;;;;3.23;1.30;;;8.10;99.90;;;;;;5052634;28;20446;-68
2021/05/25 03:00:15;;;;;;;3.07;0.77;;;8.10;99.90;;;;;;5055912;28;20439;-68
2021/05/25 03:02:41;;;;;;;3.27;1.10;;;8.10;99.90;;;;;;5070854;28;20466;-67
2021/05/25 03:05:09;;;;;;;3.83;0.87;;;8.10;99.90;;;;;;5062304;28;20498;-67
2021/05/25 03:07:36;;;;;;;2.67;1.50;;;8.10;99.90;;;;;;5055143;28;20886;-67
2021/05/25 03:10:10;;;;;;;1.50;1.40;;;8.10;99.90;;;;;;5063784;28;20510;-68
2021/05/25 03:12:36;;;;;;;2.53;1.40;;;8.10;99.90;;;;;;5068635;28;20427;-68
2021/05/25 03:15:05;;;;;;;1.40;1.30;;;8.10;99.90;;;;;;5066538;28;20867;-68
2021/05/25 03:17:30;;;;;;;2.17;0.93;;;8.00;99.90;;;;;;5051040;28;20446;-68
2021/05/25 03:19:56;;;;;;;1.50;1.17;;;7.90;99.90;;;;;;5052943;28;20431;-68
2021/05/25 03:22:21;;;;;;;5.33;2.77;;;7.90;99.90;;;;;;5052075;28;20278;-68
2021/05/25 03:24:47;;;;;;;2.60;1.40;;;7.90;99.90;;;;;;5057742;28;20674;-68
2021/05/25 03:27:13;;;;;;;2.43;1.23;;;7.90;99.90;;;;;;5061238;28;20177;-68
2021/05/25 03:29:38;;;;;;;5.60;1.30;;;7.90;99.90;;;;;;5056159;28;20197;-68
2021/05/25 03:32:04;;;;;;;4.97;1.37;;;7.90;99.90;;;;;;5053899;28;20177;-67
2021/05/25 03:34:30;;;;;;;1.67;1.27;;;7.90;99.90;;;;;;5056749;28;20189;-67
2021/05/25 03:36:55;;;;;;;1.67;1.30;;;7.90;99.90;;;;;;5069534;28;20645;-68
2021/05/25 03:39:22;;;;;;;1.77;1.30;;;7.90;99.90;;;;;;5060473;28;20197;-67
2021/05/25 03:41:47;;;;;;;4.43;1.23;;;7.80;99.90;;;;;;5064596;28;20268;-67
2021/05/25 03:44:14;;;;;;;3.10;1.03;;;7.80;99.90;;;;;;5053196;28;20575;-68
2021/05/25 03:46:43;;;;;;;2.40;1.17;;;7.80;99.90;;;;;;5053141;28;20669;-67
2021/05/25 03:49:09;;;;;;;2.53;1.23;;;7.80;99.90;;;;;;5055040;28;20456;-68
2021/05/25 03:51:36;;;;;;;1.10;0.90;;;7.80;99.90;;;;;;5055618;28;20511;-67
2021/05/25 03:54:05;;;;;;;3.00;1.33;;;7.80;99.90;;;;;;5050398;28;20442;-67
2021/05/25 03:56:34;;;;;;;1.40;1.30;;;7.90;99.90;;;;;;5054528;28;20439;-67
2021/05/25 03:59:00;;;;;;;1.90;0.90;;;8.00;99.90;;;;;;5063468;28;20467;-67
2021/05/25 04:01:27;;;;;;;1.87;1.07;;;8.00;99.90;;;;;;5059016;28;20502;-68
2021/05/25 04:03:56;;;;;;;2.03;1.03;;;8.10;99.90;;;;;;5057582;28;20272;-67
2021/05/25 04:06:23;;;;;;;0.97;0.77;;;8.30;99.90;;;;;;5056627;28;20440;-67
2021/05/25 04:08:49;;;;;;;4.00;1.30;;;8.40;99.90;;;;;;5050603;28;20447;-67
2021/05/25 04:11:17;;;;;;;3.73;1.40;;;8.50;99.90;;;;;;5051205;28;20434;-67
2021/05/25 04:13:43;;;;;;;2.83;0.90;;;8.60;99.90;;;;;;5060546;28;20426;-67
2021/05/25 04:16:12;;;;;;;1.83;1.00;;;8.60;99.90;;;;;;5065502;28;20434;-67
2021/05/25 04:18:38;;;;;;;2.00;1.60;;;8.60;99.90;;;;;;5050614;28;20448;-67
2021/05/25 04:21:03;;;;;;;0.87;0.70;;;8.60;99.90;;;;;;5056326;28;20439;-68
2021/05/25 04:23:29;;;;;;;1.07;0.73;;;8.70;99.90;;;;;;5062175;28;20642;-68
2021/05/25 04:25:55;;;;;;;2.87;1.10;;;8.70;99.90;;;;;;5053633;28;20200;-68
2021/05/25 04:28:20;;;;;;;0.93;0.60;;;8.80;99.90;;;;;;5070129;28;20669;-68
2021/05/25 04:30:46;;;;;;;2.00;0.70;;;8.90;99.90;;;;;;5060986;28;20185;-67
2021/05/25 04:33:11;;;;;;;1.07;0.90;;;8.90;99.90;;;;;;5055200;28;20176;-67
2021/05/25 04:35:37;;;;;;;1.63;1.40;;;9.00;99.90;;;;;;5064709;28;20259;-67
2021/05/25 04:38:03;;;;;;;1.40;0.80;;;9.10;99.90;;;;;;5068175;28;20572;-67
2021/05/25 04:40:30;;;;;;;3.63;1.00;;;9.10;99.90;;;;;;5060179;28;20181;-68
2021/05/25 04:42:56;;;;;;;1.00;0.70;;;9.20;99.90;;;;;;5063885;28;20484;-67
2021/05/25 04:45:22;;;;;;;2.60;0.90;;;9.30;99.90;;;;;;5068198;28;20459;-67
2021/05/25 04:47:49;;;;;;;0.80;0.60;;;9.40;99.90;;;;;;5067057;28;20527;-68
2021/05/25 04:50:15;;;;;;;1.30;0.67;;;9.50;99.90;;;;;;5059822;28;20506;-67
2021/05/25 04:52:41;;;;;;;1.23;0.70;;;9.60;99.90;;;;;;5057654;28;20941;-68
2021/05/25 04:55:10;;;;;;;2.50;0.80;;;9.70;99.90;;;;;;5069049;28;20716;-67
2021/05/25 04:57:36;;;;;;;1.40;1.30;;;9.80;99.90;;;;;;5054891;28;20505;-68
2021/05/25 05:00:04;;;;;;;1.20;0.50;;;9.70;99.90;;;;;;5059096;28;20436;-67
2021/05/25 05:02:30;;;;;;;0.83;0.83;;;9.70;99.90;;;;;;5061951;28;20472;-66
2021/05/25 05:04:55;;;;;;;3.10;0.80;;;9.50;99.90;;;;;;5072360;28;20486;-67
2021/05/25 05:07:21;;;;;;;5.40;1.10;;;9.40;99.90;;;;;;5066409;28;20170;-68
2021/05/25 05:09:46;;;;;;;1.13;0.90;;;9.40;99.90;;;;;;5053135;28;20259;-66
2021/05/25 05:12:12;;;;;;;1.27;0.97;;;9.40;99.90;;;;;;5069768;28;20172;-67
2021/05/25 05:14:37;;;;;;;3.13;0.80;;;9.40;99.90;;;;;;5059152;28;20668;-68
2021/05/25 05:17:03;;;;;;;0.97;0.80;;;9.50;99.90;;;;;;5053843;28;20272;-68
2021/05/25 05:19:28;;;;;;;0.97;0.87;;;9.70;99.90;;;;;;5064658;28;20229;-68
2021/05/25 05:21:54;;;;;;;1.87;1.00;;;9.70;99.90;;;;;;5052821;28;20197;-68
2021/05/25 05:24:20;;;;;;;2.13;0.80;;;9.60;99.90;;;;;;5067041;28;20552;-67
2021/05/25 05:26:46;;;;;;;2.17;0.90;;;9.60;99.90;;;;;;5056419;28;20940;-66
2021/05/25 05:29:11;;;;;;;1.20;1.10;;;9.60;99.90;;;;;;5072417;28;20231;-66
2021/05/25 05:31:37;;;;;;;0.87;0.87;;;9.70;99.90;;;;;;5073577;28;20176;-67
2021/05/25 05:34:03;;;;;;;0.97;0.83;;;9.80;99.90;;;;;;5058604;28;20247;-67
2021/05/25 05:36:29;;;;;;;1.67;1.37;;;10.00;99.90;;;;;;5072132;28;20552;-67
2021/05/25 05:38:54;;;;;;;2.20;0.80;;;10.30;99.90;;;;;;5071768;28;20463;-67
2021/05/25 05:41:20;;;;;;;1.83;1.00;;;10.40;99.90;;;;;;5072055;28;20172;-67
2021/05/25 05:43:45;;;;;;;0.97;0.70;;;10.50;99.90;;;;;;5082799;28;20228;-67
2021/05/25 05:46:14;;;;;;;0.90;0.80;;;10.60;99.90;;;;;;5072074;28;20260;-68
2021/05/25 05:48:39;;;;;;;2.80;0.70;;;10.80;99.90;;;;;;5069741;28;20220;-68
2021/05/25 05:51:05;;;;;;;1.73;1.50;;;10.80;99.90;;;;;;5070678;28;20435;-67
2021/05/25 05:53:30;;;;;;;1.83;0.70;;;10.80;99.90;;;;;;5083511;28;20180;-67
2021/05/25 05:55:56;;;;;;;3.20;0.90;;;10.90;99.90;;;;;;5064506;28;20235;-67
2021/05/25 05:58:21;;;;;;;5.20;2.27;;;11.20;99.90;;;;;;5070570;28;20201;-67
2021/05/25 06:00:47;;;;;;;2.40;1.40;;;11.30;99.90;;;;;;5055514;28;20307;-67
2021/05/25 06:03:12;;;;;;;1.83;1.10;;;11.20;99.90;;;;;;5072260;28;20189;-67
2021/05/25 06:05:39;;;;;;;1.30;1.13;;;11.00;99.90;;;;;;5060961;28;20633;-67
2021/05/25 06:08:07;;;;;;;0.97;0.83;;;11.00;99.90;;;;;;5053576;28;20197;-67
2021/05/25 06:10:35;;;;;;;2.40;1.30;;;11.00;99.90;;;;;;5061466;28;20819;-67
2021/05/25 06:13:01;;;;;;;1.23;0.80;;;11.30;99.90;;;;;;5052620;28;20439;-67
2021/05/25 06:15:26;;;;;;;3.27;1.10;;;11.40;99.90;;;;;;5059998;28;20439;-67
2021/05/25 06:17:52;;;;;;;1.60;1.30;;;11.50;99.90;;;;;;5062679;28;20458;-67
2021/05/25 06:20:19;;;;;;;1.23;0.90;;;11.50;99.90;;;;;;5057990;28;20189;-67
2021/05/25 06:22:45;;;;;;;1.27;1.17;;;11.60;99.90;;;;;;5063232;28;20787;-67
2021/05/25 06:25:13;;;;;;;2.40;1.40;;;11.60;99.90;;;;;;5062438;28;20546;-70
2021/05/25 06:27:39;;;;;;;1.23;0.90;;;11.60;99.90;;;;;;5061273;28;20559;-71
2021/05/25 06:30:07;;;;;;;1.53;1.23;;;11.70;99.90;;;;;;5051604;28;20459;-69
2021/05/25 06:32:33;;;;;;;0.83;0.77;;;12.10;99.90;;;;;;5051321;28;20432;-69
2021/05/25 06:34:58;;;;;;;2.07;1.30;;;12.50;99.90;;;;;;5044068;28;20451;-68
2021/05/25 06:37:24;;;;;;;1.80;1.40;;;12.60;99.90;;;;;;5058058;28;20535;-68
2021/05/25 06:39:49;;;;;;;1.30;0.93;;;12.50;99.90;;;;;;5053523;28;20208;-68
2021/05/25 06:42:15;;;;;;;4.10;1.20;;;12.50;99.90;;;;;;5068062;28;20185;-68
2021/05/25 06:44:41;;;;;;;1.40;0.83;;;12.60;99.90;;;;;;5067588;28;20223;-68
2021/05/25 06:47:06;;;;;;;1.37;0.87;;;12.70;99.90;;;;;;5071428;28;20181;-68
2021/05/25 06:49:32;;;;;;;1.50;0.90;;;12.80;99.90;;;;;;5060469;28;20225;-70
2021/05/25 06:51:57;;;;;;;1.53;0.97;;;12.80;99.90;;;;;;5051666;28;20418;-68
2021/05/25 06:54:23;;;;;;;4.60;1.10;;;13.20;99.90;;;;;;5060280;28;20775;-70
2021/05/25 06:56:48;;;;;;;1.10;0.77;;;13.20;99.90;;;;;;5069136;28;20203;-71
2021/05/25 06:59:14;;;;;;;1.00;0.87;;;13.00;99.90;;;;;;5060527;28;20198;-70
2021/05/25 07:01:39;;;;;;;0.93;0.83;;;13.00;99.90;;;;;;5056162;28;20182;-70
2021/05/25 07:04:05;;;;;;;2.00;0.90;;;13.00;99.90;;;;;;5052569;28;20543;-70
2021/05/25 07:06:31;;;;;;;1.50;0.83;;;13.20;99.90;;;;;;5052998;28;20196;-69
2021/05/25 07:08:57;;;;;;;3.20;0.90;;;13.10;99.90;;;;;;5063312;28;20224;-70
2021/05/25 07:11:23;;;;;;;2.40;1.20;;;12.80;99.90;;;;;;5062744;28;20238;-69
2021/05/25 07:13:48;;;;;;;1.10;1.00;;;13.00;99.90;;;;;;5058393;28;20431;-69
2021/05/25 07:16:14;;;;;;;2.87;1.07;;;12.90;99.90;;;;;;5053674;28;20170;-69
2021/05/25 07:18:40;;;;;;;2.43;0.90;;;13.00;99.90;;;;;;5055424;28;20745;-69
2021/05/25 07:21:06;;;;;;;1.10;0.97;;;13.10;99.90;;;;;;5060319;28;20170;-70
2021/05/25 07:23:33;;;;;;;1.87;1.07;;;13.40;99.90;;;;;;5059080;28;20785;-69
2021/05/25 07:25:58;;;;;;;3.13;0.87;;;13.50;99.90;;;;;;5058504;28;20968;-69
2021/05/25 07:28:24;;;;;;;1.17;1.03;;;13.70;99.90;;;;;;5050497;28;20550;-69
2021/05/25 07:30:50;;;;;;;2.40;1.00;;;13.80;99.90;;;;;;5048046;28;20180;-69
2021/05/25 07:33:15;;;;;;;1.00;0.83;;;14.00;99.90;;;;;;5054050;28;20185;-68
2021/05/25 07:35:41;;;;;;;1.67;1.10;;;14.40;99.90;;;;;;5063267;28;20233;-69
2021/05/25 07:38:07;;;;;;;5.33;1.40;;;14.30;99.90;;;;;;5065009;28;20684;-69
2021/05/25 07:40:32;;;;;;;2.07;0.87;;;14.60;99.90;;;;;;5053196;28;20679;-70
2021/05/25 07:42:58;;;;;;;1.87;1.30;;;15.10;99.90;;;;;;5062729;28;20518;-69
2021/05/25 07:45:24;;;;;;;1.17;0.97;;;15.00;99.90;;;;;;5060774;28;20208;-69
2021/05/25 07:47:50;;;;;;;1.63;0.97;;;15.00;99.60;;;;;;5053222;28;20237;-69
2021/05/25 07:50:16;;;;;;;1.63;1.13;;;14.90;99.50;;;;;;5062577;28;20291;-69
2021/05/25 07:52:50;;;;;;;2.17;1.10;;;14.80;98.80;;;;;;5059538;28;20177;-70
2021/05/25 07:55:21;;;;;;;4.53;1.53;;;14.60;98.90;;;;;;5064729;28;20461;-69
2021/05/25 07:57:46;;;;;;;1.93;1.00;;;14.40;98.20;;;;;;5052298;28;20492;-70
2021/05/25 08:00:13;;;;;;;2.53;1.63;;;14.00;98.50;;;;;;5062310;28;21033;-69
2021/05/25 08:02:40;;;;;;;0.93;0.93;;;14.20;99.20;;;;;;5062139;28;20181;-69
2021/05/25 08:05:06;;;;;;;3.07;1.27;;;14.10;99.30;;;;;;5062857;28;20537;-69
2021/05/25 08:07:32;;;;;;;4.03;2.37;;;14.20;99.70;;;;;;5047017;28;20434;-70
2021/05/25 08:09:57;;;;;;;1.90;1.27;;;14.40;99.90;;;;;;5047716;28;20807;-69
2021/05/25 08:12:23;;;;;;;1.70;1.30;;;14.70;98.50;;;;;;5046997;28;20170;-70
2021/05/25 08:14:50;;;;;;;1.50;1.17;;;14.30;98.40;;;;;;5062016;28;20525;-70
2021/05/25 08:17:19;;;;;;;1.93;1.57;;;14.20;98.80;;;;;;5064828;28;20531;-69
2021/05/25 08:19:48;;;;;;;2.00;1.33;;;14.40;98.70;;;;;;5055625;28;20459;-68
2021/05/25 08:22:13;;;;;;;3.37;1.53;;;14.80;98.10;;;;;;5050521;28;20434;-69
2021/05/25 08:24:39;;;;;;;3.93;1.30;;;15.20;98.30;;;;;;5060326;28;20992;-68
2021/05/25 08:27:04;;;;;;;3.70;1.30;;;15.40;97.20;;;;;;5060966;28;20681;-70
2021/05/25 08:29:30;;;;;;;2.17;1.27;;;15.20;97.10;;;;;;5066629;28;20283;-69
2021/05/25 08:31:56;;;;;;;4.73;1.10;;;15.30;96.80;;;;;;5061411;28;20185;-69
2021/05/25 08:34:23;;;;;;;3.60;1.47;;;15.30;96.60;;;;;;5053874;28;20181;-69
2021/05/25 08:36:49;;;;;;;1.30;1.20;;;15.60;96.80;;;;;;5053252;28;20276;-70
2021/05/25 08:39:14;;;;;;;1.57;1.03;;;16.00;96.10;;;;;;5059806;28;20553;-69
2021/05/25 08:41:40;;;;;;;1.20;1.10;;;16.30;95.10;;;;;;5061352;28;20614;-69
2021/05/25 08:44:05;;;;;;;0.93;0.93;;;16.30;94.40;;;;;;5062875;28;20199;-69
2021/05/25 08:46:33;;;;;;;2.17;1.40;;;16.30;95.10;;;;;;5054478;28;20264;-68
2021/05/25 08:48:59;;;;;;;2.30;1.00;;;16.20;94.20;;;;;;5058495;28;20280;-69
2021/05/25 08:51:24;;;;;;;2.17;1.13;;;16.00;94.90;;;;;;5056859;28;20541;-69
2021/05/25 08:53:51;;;;;;;1.00;0.80;;;16.00;93.90;;;;;;5059036;28;20461;-69
2021/05/25 08:56:16;;;;;;;6.67;1.20;;;15.90;94.60;;;;;;5065986;28;20216;-69
2021/05/25 08:58:42;;;;;;;1.30;1.13;;;16.10;94.30;;;;;;5060375;28;20707;-69
2021/05/25 09:01:08;;;;;;;2.47;1.27;;;16.30;93.50;;;;;;5063155;28;20185;-69
2021/05/25 09:03:53;;;;;;;5.33;1.33;;;16.40;93.40;;;;;;5063012;28;20513;-68
2021/05/25 09:06:18;;;;;;;0.93;0.93;;;16.70;92.40;;;;;;5063051;28;20264;-68
2021/05/25 09:09:11;;;;;;;1.30;1.20;;;17.00;92.00;;;;;;5064391;28;20471;-68
2021/05/25 09:12:00;;;;;;;3.00;1.20;;;17.00;91.70;;;;;;5069392;28;20224;-67
2021/05/25 09:14:27;;;;;;;1.20;1.10;;;16.50;90.90;;;;;;5054473;28;20889;-68
2021/05/25 09:17:21;;;;;;;3.30;1.93;;;16.40;92.20;;;;;;5058265;28;20945;-69
2021/05/25 09:19:54;;;;;;;1.30;1.20;;;16.50;92.00;;;;;;5060838;28;20919;-69
2021/05/25 09:22:38;;;;;;;2.57;1.20;;;16.90;92.60;;;;;;5066716;28;20434;-68
2021/05/25 09:25:22;;;;;;;1.90;1.30;;;16.90;90.80;;;;;;5057772;28;20797;-68
2021/05/25 09:30:48;;;;;;;4.93;2.03;;;16.60;91.60;;;;;;5033030;28;20528;-68
2021/05/25 09:33:15;;;;;;;3.20;1.70;;;16.70;90.60;;;;;;5066250;28;20530;-68
2021/05/25 09:35:45;;;;;;;1.30;1.20;;;16.40;91.30;;;;;;5084787;28;20440;-67
2021/05/25 09:38:13;;;;;;;2.73;1.60;;;16.30;90.50;;;;;;5073244;28;20463;-69
2021/05/25 09:40:44;;;;;;;2.50;1.47;;;15.60;91.70;;;;;;5048557;28;20730;-68
2021/05/25 09:43:18;;;;;;;2.63;2.07;;;15.40;92.50;;;;;;5052591;28;20528;-69
2021/05/25 09:46:13;;;;;;;1.73;1.17;;;15.50;92.70;;;;;;5063792;28;20462;-68
2021/05/25 09:48:42;;;;;;;1.40;1.10;;;15.90;92.10;;;;;;5041968;28;20489;-68
2021/05/25 09:51:19;;;;;;;2.33;1.30;;;16.10;91.70;;;;;;5050774;28;20433;-68
2021/05/25 09:53:49;;;;;;;3.03;1.30;;;16.40;91.00;;;;;;5061288;28;20467;-69
2021/05/25 09:56:23;;;;;;;2.83;1.63;;;16.10;90.80;;;;;;5051671;28;20556;-68
2021/05/25 09:58:49;;;;;;;4.83;1.67;;;16.20;90.70;;;;;;5058844;28;20468;-68
2021/05/25 10:01:14;;;;;;;1.87;1.30;;;17.00;90.60;;;;;;5064811;28;20439;-68
2021/05/25 10:03:49;;;;;;;2.03;1.40;;;17.40;86.50;;;;;;5056471;28;20188;-68
2021/05/25 10:06:16;;;;;;;3.00;1.50;;;17.80;85.10;;;;;;5048829;28;20216;-68
2021/05/25 10:08:46;;;;;;;1.33;1.23;;;18.90;83.90;;;;;;5053043;28;20531;-69
2021/05/25 10:11:15;;;;;;;3.00;1.33;;;19.10;80.00;;;;;;5050834;28;20439;-69
2021/05/25 10:13:41;;;;;;;2.10;1.20;;;19.30;78.10;;;;;;5066670;28;20430;-69
2021/05/25 10:16:09;;;;;;;1.97;1.17;;;19.30;76.50;;;;;;5070951;28;20778;-69
2021/05/25 10:18:48;;;;;;;1.53;0.93;;;19.50;75.20;;;;;;5060119;28;20197;-68
2021/05/25 10:21:14;;;;;;;4.37;1.40;;;19.50;74.00;;;;;;5056854;28;20799;-68
2021/05/25 10:23:42;;;;;;;1.80;1.67;;;20.20;74.90;;;;;;5062771;28;20510;-71
2021/05/25 10:26:09;;;;;;;3.10;1.77;;;19.50;70.80;;;;;;5064453;28;20499;-69
2021/05/25 10:28:39;;;;;;;2.80;1.80;;;18.60;72.10;;;;;;5066335;28;20964;-68
2021/05/25 10:31:33;;;;;;;2.60;1.80;;;18.60;74.50;;;;;;5067884;28;20438;-69
2021/05/25 10:34:20;;;;;;;2.90;1.33;;;17.90;75.10;;;;;;5058650;28;20431;-68
2021/05/25 10:36:54;;;;;;;4.50;1.60;;;17.00;76.10;;;;;;5056927;28;20430;-73
2021/05/25 10:39:40;;;;;;;2.07;1.80;;;16.70;78.80;;;;;;5057314;28;20754;-69
2021/05/25 10:42:24;;;;;;;2.10;1.50;;;17.00;77.10;;;;;;5052136;28;20436;-72
2021/05/25 10:44:59;;;;;;;3.97;1.47;;;16.90;78.70;;;;;;5065210;28;20469;-74
2021/05/25 10:47:38;;;;;;;2.60;1.70;;;16.60;79.30;;;;;;5066244;28;20427;-70
2021/05/25 10:52:41;;;;;;;3.70;1.90;;;15.80;81.60;;;;;;5057356;28;20936;-69
2021/05/25 10:55:07;;;;;;;2.00;1.57;;;15.70;85.70;;;;;;5064782;28;20947;-68
2021/05/25 10:57:37;;;;;;;2.00;1.60;;;15.60;85.40;;;;;;5052213;28;20517;-68
2021/05/25 11:00:06;;;;;;;5.27;1.77;;;15.60;85.60;;;;;;5053552;28;20428;-67
2021/05/25 11:02:49;;;;;;;8.70;2.47;;;15.70;86.10;;;;;;5055508;28;20440;-67
2021/05/25 11:05:42;;;;;;;4.50;1.87;;;16.10;86.00;;;;;;5062833;28;20466;-68
2021/05/25 11:08:08;;;;;;;3.43;1.77;;;15.90;86.40;;;;;;5065827;28;20505;-67
2021/05/25 11:10:40;;;;;;;2.97;1.57;;;15.50;88.00;;;;;;5059661;28;20981;-68
2021/05/25 11:13:32;;;;;;;4.23;2.30;;;14.90;90.50;;;;;;5063038;28;20711;-68
2021/05/25 11:16:12;;;;;;;4.33;1.63;;;14.30;95.10;;;;;;5058771;28;20428;-68
2021/05/25 11:21:37;;;;;;;1.13;1.00;;;13.50;96.90;;;;;;5066046;28;20463;-68
2021/05/25 11:24:32;;;;;;;1.60;1.07;;;13.50;98.40;;;;;;5067124;28;20509;-68
2021/05/25 11:26:59;;;;;;;1.53;1.03;;;13.60;99.90;;;;;;5065250;28;20575;-68
2021/05/25 11:29:27;;;;;;;3.93;1.40;;;14.80;99.90;;;;;;5051820;28;20439;-68
2021/05/25 11:31:54;;;;;;;1.77;1.27;;;15.80;99.90;;;;;;5053307;28;20455;-68
2021/05/25 11:34:22;;;;;;;1.40;1.30;;;17.20;97.20;;;;;;5063066;28;20446;-68
2021/05/25 11:36:59;;;;;;;1.20;1.10;;;19.20;91.70;;;;;;5053409;28;20430;-68
2021/05/25 11:39:25;;;;;;;2.27;1.50;;;21.40;85.00;;;;;;5055657;28;20454;-67
2021/05/25 11:41:51;;;;;;;2.87;1.30;;;22.50;70.90;;;;;;5049591;28;20432;-68
2021/05/25 11:44:19;;;;;;;2.70;1.83;;;20.10;73.00;;;;;;5053408;28;20513;-68
2021/05/25 11:46:46;;;;;;;1.27;1.17;;;18.60;78.90;;;;;;5064793;28;20564;-68
2021/05/25 11:49:14;;;;;;;6.10;1.40;;;17.30;82.70;;;;;;5050195;28;20463;-68
2021/05/25 11:51:40;;;;;;;1.97;1.40;;;16.30;85.70;;;;;;5058799;28;20519;-68
2021/05/25 11:54:20;;;;;;;2.47;1.10;;;17.80;85.00;;;;;;5055116;28;20920;-68
2021/05/25 11:56:50;;;;;;;1.40;1.30;;;19.90;75.40;;;;;;5063335;28;20433;-68
2021/05/25 11:59:21;;;;;;;1.53;1.20;;;21.90;68.40;;;;;;5054802;28;20988;-68
2021/05/25 12:01:49;;;;;;;1.47;0.90;;;22.30;63.20;;;;;;5055554;28;20469;-68
2021/05/25 12:04:15;;;;;;;1.53;1.23;;;21.90;63.10;;;;;;5058925;28;20804;-67
2021/05/25 12:06:46;;;;;;;2.70;1.53;;;21.80;62.00;;;;;;5057149;28;20431;-68
2021/05/25 12:09:12;;;;;;;4.50;1.30;;;22.80;60.60;;;;;;5054465;28;20451;-68
2021/05/25 12:11:42;;;;;;;3.90;1.07;;;23.00;58.70;;;;;;5055394;28;20435;-67
2021/05/25 12:14:09;;;;;;;3.30;1.50;;;23.00;58.40;;;;;;5079842;28;20237;-68
2021/05/25 12:16:35;;;;;;;3.37;1.40;;;22.80;57.30;;;;;;5053135;28;20439;-68
2021/05/25 12:19:01;;;;;;;1.50;1.20;;;23.30;57.80;;;;;;5066396;28;20480;-68
2021/05/25 12:21:27;;;;;;;1.70;1.03;;;23.40;53.50;;;;;;5061897;28;20500;-68
2021/05/25 12:23:53;;;;;;;2.03;1.40;;;23.50;52.80;;;;;;5056090;28;20442;-68
2021/05/25 12:26:19;;;;;;;4.30;1.10;;;23.20;51.50;;;;;;5063176;28;20462;-67
2021/05/25 12:28:48;;;;;;;3.40;1.53;;;20.30;54.70;;;;;;5053866;28;20564;-67
2021/05/25 12:31:14;;;;;;;1.87;1.20;;;18.60;58.50;;;;;;5065188;28;20530;-67
2021/05/25 12:33:47;;;;;;;2.03;1.40;;;18.00;60.00;;;;;;5067385;28;20438;-67
2021/05/25 12:36:23;;;;;;;3.57;1.70;;;18.40;60.90;;;;;;5069594;28;20453;-67
2021/05/25 12:39:09;;;;;;;4.60;1.40;;;19.10;59.10;;;;;;5061849;28;20925;-67
2021/05/25 12:41:46;;;;;;;1.20;1.10;;;19.60;57.50;;;;;;5052982;28;20444;-67
2021/05/25 12:44:19;;;;;;;2.10;1.33;;;18.20;58.70;;;;;;5063840;28;20650;-67
2021/05/25 12:46:56;;;;;;;2.27;1.37;;;17.50;64.30;;;;;;5062345;28;20940;-67
2021/05/25 12:49:29;;;;;;;2.03;1.67;;;18.50;62.90;;;;;;5061348;28;20529;-67
2021/05/25 12:52:17;;;;;;;2.23;1.83;;;19.90;59.40;;;;;;5065378;28;20900;-68
2021/05/25 12:54:52;;;;;;;1.70;1.10;;;20.80;58.40;;;;;;5066604;28;20426;-67
2021/05/25 12:57:18;;;;;;;2.97;1.40;;;21.40;56.10;;;;;;5055403;28;20542;-67
2021/05/25 12:59:43;;;;;;;7.03;1.37;;;21.30;56.10;;;;;;5051343;28;21055;-67
2021/05/25 13:02:09;;;;;;;1.80;0.90;;;21.60;54.80;;;;;;5062950;28;20185;-67
2021/05/25 13:04:34;;;;;;;2.20;1.40;;;21.80;55.00;;;;;;5065137;28;20196;-67